sensor_id;sensor_type;location;lat;lon;timestamp;P1;durP1;ratioP1;P2;durP2;ratioP2
29662;SDS011;16578;53.266;7.920;2022-12-07T00:01:24;6.13;;;2.90;;
29662;SDS011;16578;53.266;7.920;2022-12-07T00:04:00;12.95;;;2.78;;
29662;SDS011;16578;53.266;7.920;2022-12-07T00:06:31;4.80;;;2.92;;
29662;SDS011;16578;53.266;7.920;2022-12-07T00:09:03;5.00;;;2.60;;
29662;SDS011;16578;53.266;7.920;2022-12-07T00:11:30;3.17;;;2.22;;
29662;SDS011;16578;53.266;7.920;2022-12-07T00:13:57;7.32;;;2.78;;
29662;SDS011;16578;53.266;7.920;2022-12-07T00:16:25;4.43;;;2.10;;
29662;SDS011;16578;53.266;7.920;2022-12-07T00:18:52;8.60;;;2.38;;
29662;SDS011;16578;53.266;7.920;2022-12-07T00:21:19;6.57;;;2.53;;
29662;SDS011;16578;53.266;7.920;2022-12-07T00:23:50;6.40;;;2.33;;
29662;SDS011;16578;53.266;7.920;2022-12-07T00:28:51;4.47;;;1.85;;
29662;SDS011;16578;53.266;7.920;2022-12-07T00:31:19;4.75;;;1.95;;
29662;SDS011;16578;53.266;7.920;2022-12-07T00:33:46;5.25;;;2.33;;
29662;SDS011;16578;53.266;7.920;2022-12-07T00:36:14;3.00;;;1.65;;
29662;SDS011;16578;53.266;7.920;2022-12-07T00:38:41;4.28;;;1.90;;
29662;SDS011;16578;53.266;7.920;2022-12-07T00:41:09;4.07;;;2.10;;
29662;SDS011;16578;53.266;7.920;2022-12-07T00:43:37;5.13;;;1.88;;
29662;SDS011;16578;53.266;7.920;2022-12-07T00:46:03;2.83;;;2.00;;
29662;SDS011;16578;53.266;7.920;2022-12-07T00:48:29;3.10;;;1.85;;
29662;SDS011;16578;53.266;7.920;2022-12-07T00:50:55;7.03;;;2.38;;
29662;SDS011;16578;53.266;7.920;2022-12-07T00:53:21;5.30;;;3.13;;
29662;SDS011;16578;53.266;7.920;2022-12-07T00:55:46;4.75;;;2.78;;
29662;SDS011;16578;53.266;7.920;2022-12-07T00:58:12;5.30;;;3.00;;
29662;SDS011;16578;53.266;7.920;2022-12-07T01:00:38;5.10;;;2.85;;
29662;SDS011;16578;53.266;7.920;2022-12-07T01:03:06;5.70;;;4.13;;
29662;SDS011;16578;53.266;7.920;2022-12-07T01:05:33;5.45;;;3.47;;
29662;SDS011;16578;53.266;7.920;2022-12-07T01:07:58;6.35;;;4.32;;
29662;SDS011;16578;53.266;7.920;2022-12-07T01:10:24;7.82;;;4.32;;
29662;SDS011;16578;53.266;7.920;2022-12-07T01:12:50;5.53;;;3.70;;
29662;SDS011;16578;53.266;7.920;2022-12-07T01:15:16;5.50;;;3.90;;
29662;SDS011;16578;53.266;7.920;2022-12-07T01:17:41;8.90;;;4.35;;
29662;SDS011;16578;53.266;7.920;2022-12-07T01:20:07;12.48;;;5.57;;
29662;SDS011;16578;53.266;7.920;2022-12-07T01:22:42;6.90;;;4.53;;
29662;SDS011;16578;53.266;7.920;2022-12-07T01:25:09;7.80;;;4.85;;
29662;SDS011;16578;53.266;7.920;2022-12-07T01:27:36;8.65;;;4.82;;
29662;SDS011;16578;53.266;7.920;2022-12-07T01:30:03;8.23;;;4.93;;
29662;SDS011;16578;53.266;7.920;2022-12-07T01:32:31;7.80;;;4.63;;
29662;SDS011;16578;53.266;7.920;2022-12-07T01:34:57;7.60;;;4.60;;
29662;SDS011;16578;53.266;7.920;2022-12-07T01:37:22;8.80;;;4.43;;
29662;SDS011;16578;53.266;7.920;2022-12-07T01:39:49;10.82;;;5.53;;
29662;SDS011;16578;53.266;7.920;2022-12-07T01:42:16;6.20;;;4.35;;
29662;SDS011;16578;53.266;7.920;2022-12-07T01:45:17;7.18;;;4.75;;
29662;SDS011;16578;53.266;7.920;2022-12-07T01:47:52;8.02;;;5.00;;
29662;SDS011;16578;53.266;7.920;2022-12-07T01:50:20;8.05;;;5.30;;
29662;SDS011;16578;53.266;7.920;2022-12-07T01:55:16;8.20;;;5.40;;
29662;SDS011;16578;53.266;7.920;2022-12-07T01:57:43;15.55;;;7.03;;
29662;SDS011;16578;53.266;7.920;2022-12-07T02:00:12;7.47;;;5.28;;
29662;SDS011;16578;53.266;7.920;2022-12-07T02:02:41;9.90;;;5.63;;
29662;SDS011;16578;53.266;7.920;2022-12-07T02:05:27;9.82;;;4.68;;
29662;SDS011;16578;53.266;7.920;2022-12-07T02:07:54;8.05;;;4.57;;
29662;SDS011;16578;53.266;7.920;2022-12-07T02:10:22;9.17;;;4.30;;
29662;SDS011;16578;53.266;7.920;2022-12-07T02:12:57;6.35;;;3.78;;
29662;SDS011;16578;53.266;7.920;2022-12-07T02:15:45;8.18;;;3.15;;
29662;SDS011;16578;53.266;7.920;2022-12-07T02:19:20;8.27;;;4.07;;
29662;SDS011;16578;53.266;7.920;2022-12-07T02:21:46;5.00;;;3.10;;
29662;SDS011;16578;53.266;7.920;2022-12-07T02:24:47;10.65;;;3.75;;
29662;SDS011;16578;53.266;7.920;2022-12-07T02:27:33;3.55;;;2.55;;
29662;SDS011;16578;53.266;7.920;2022-12-07T02:30:27;5.30;;;2.78;;
29662;SDS011;16578;53.266;7.920;2022-12-07T02:33:00;5.60;;;1.98;;
29662;SDS011;16578;53.266;7.920;2022-12-07T02:35:40;4.97;;;1.90;;
29662;SDS011;16578;53.266;7.920;2022-12-07T02:41:04;2.10;;;1.45;;
29662;SDS011;16578;53.266;7.920;2022-12-07T02:43:47;3.50;;;1.30;;
29662;SDS011;16578;53.266;7.920;2022-12-07T02:46:20;2.30;;;1.08;;
29662;SDS011;16578;53.266;7.920;2022-12-07T02:48:48;3.55;;;1.02;;
29662;SDS011;16578;53.266;7.920;2022-12-07T02:51:17;2.08;;;0.95;;
29662;SDS011;16578;53.266;7.920;2022-12-07T02:53:43;1.97;;;1.00;;
29662;SDS011;16578;53.266;7.920;2022-12-07T03:12:49;1.85;;;0.85;;
29662;SDS011;16578;53.266;7.920;2022-12-07T03:18:23;1.63;;;0.68;;
29662;SDS011;16578;53.266;7.920;2022-12-07T03:20:53;0.77;;;0.77;;
29662;SDS011;16578;53.266;7.920;2022-12-07T03:23:21;0.77;;;0.57;;
29662;SDS011;16578;53.266;7.920;2022-12-07T03:25:51;1.52;;;0.82;;
29662;SDS011;16578;53.266;7.920;2022-12-07T03:28:21;1.10;;;0.60;;
29662;SDS011;16578;53.266;7.920;2022-12-07T03:30:56;1.60;;;0.75;;
29662;SDS011;16578;53.266;7.920;2022-12-07T03:33:31;2.38;;;0.82;;
29662;SDS011;16578;53.266;7.920;2022-12-07T03:36:07;1.92;;;0.90;;
29662;SDS011;16578;53.266;7.920;2022-12-07T03:41:49;0.95;;;0.70;;
29662;SDS011;16578;53.266;7.920;2022-12-07T03:44:16;4.30;;;0.88;;
29662;SDS011;16578;53.266;7.920;2022-12-07T03:49:25;1.23;;;0.70;;
29662;SDS011;16578;53.266;7.920;2022-12-07T03:59:32;3.45;;;0.80;;
29662;SDS011;16578;53.266;7.920;2022-12-07T04:02:01;2.35;;;0.82;;
29662;SDS011;16578;53.266;7.920;2022-12-07T04:04:29;2.88;;;1.10;;
29662;SDS011;16578;53.266;7.920;2022-12-07T04:06:55;2.53;;;0.80;;
29662;SDS011;16578;53.266;7.920;2022-12-07T04:09:21;2.47;;;0.90;;
29662;SDS011;16578;53.266;7.920;2022-12-07T04:11:47;2.50;;;0.90;;
29662;SDS011;16578;53.266;7.920;2022-12-07T04:14:13;2.58;;;0.93;;
29662;SDS011;16578;53.266;7.920;2022-12-07T04:16:45;2.85;;;0.70;;
29662;SDS011;16578;53.266;7.920;2022-12-07T04:19:15;8.60;;;1.00;;
29662;SDS011;16578;53.266;7.920;2022-12-07T04:21:41;2.78;;;0.90;;
29662;SDS011;16578;53.266;7.920;2022-12-07T04:24:07;1.77;;;0.90;;
29662;SDS011;16578;53.266;7.920;2022-12-07T04:26:33;2.58;;;0.93;;
29662;SDS011;16578;53.266;7.920;2022-12-07T04:28:58;2.90;;;1.25;;
29662;SDS011;16578;53.266;7.920;2022-12-07T04:31:24;4.57;;;1.10;;
29662;SDS011;16578;53.266;7.920;2022-12-07T04:33:49;2.35;;;0.82;;
29662;SDS011;16578;53.266;7.920;2022-12-07T04:36:15;2.03;;;0.93;;
29662;SDS011;16578;53.266;7.920;2022-12-07T04:38:41;4.25;;;0.90;;
29662;SDS011;16578;53.266;7.920;2022-12-07T04:41:07;1.67;;;0.82;;
29662;SDS011;16578;53.266;7.920;2022-12-07T04:43:33;3.08;;;0.73;;
29662;SDS011;16578;53.266;7.920;2022-12-07T04:45:59;4.00;;;1.00;;
29662;SDS011;16578;53.266;7.920;2022-12-07T04:48:25;6.88;;;1.25;;
29662;SDS011;16578;53.266;7.920;2022-12-07T04:50:50;3.60;;;0.90;;
29662;SDS011;16578;53.266;7.920;2022-12-07T04:53:16;2.05;;;0.70;;
29662;SDS011;16578;53.266;7.920;2022-12-07T04:55:42;3.35;;;0.80;;
29662;SDS011;16578;53.266;7.920;2022-12-07T04:58:08;2.25;;;0.77;;
29662;SDS011;16578;53.266;7.920;2022-12-07T05:00:33;3.53;;;1.15;;
29662;SDS011;16578;53.266;7.920;2022-12-07T05:02:59;3.85;;;0.95;;
29662;SDS011;16578;53.266;7.920;2022-12-07T05:05:25;3.50;;;0.90;;
29662;SDS011;16578;53.266;7.920;2022-12-07T05:07:50;3.92;;;1.10;;
29662;SDS011;16578;53.266;7.920;2022-12-07T05:10:16;1.17;;;0.93;;
29662;SDS011;16578;53.266;7.920;2022-12-07T05:12:42;9.27;;;1.30;;
29662;SDS011;16578;53.266;7.920;2022-12-07T05:15:07;2.55;;;1.05;;
29662;SDS011;16578;53.266;7.920;2022-12-07T05:17:33;4.43;;;1.38;;
29662;SDS011;16578;53.266;7.920;2022-12-07T05:19:59;4.53;;;1.10;;
29662;SDS011;16578;53.266;7.920;2022-12-07T05:22:24;5.80;;;1.30;;
29662;SDS011;16578;53.266;7.920;2022-12-07T05:24:53;3.10;;;1.10;;
29662;SDS011;16578;53.266;7.920;2022-12-07T05:27:19;5.80;;;1.00;;
29662;SDS011;16578;53.266;7.920;2022-12-07T05:29:45;3.55;;;0.85;;
29662;SDS011;16578;53.266;7.920;2022-12-07T05:32:10;4.78;;;1.17;;
29662;SDS011;16578;53.266;7.920;2022-12-07T05:34:36;2.35;;;1.00;;
29662;SDS011;16578;53.266;7.920;2022-12-07T05:37:01;2.72;;;1.08;;
29662;SDS011;16578;53.266;7.920;2022-12-07T05:39:27;2.55;;;0.95;;
29662;SDS011;16578;53.266;7.920;2022-12-07T05:41:52;3.75;;;1.20;;
29662;SDS011;16578;53.266;7.920;2022-12-07T05:44:36;3.08;;;0.98;;
29662;SDS011;16578;53.266;7.920;2022-12-07T05:47:02;2.08;;;0.90;;
29662;SDS011;16578;53.266;7.920;2022-12-07T05:49:28;2.10;;;1.00;;
29662;SDS011;16578;53.266;7.920;2022-12-07T05:51:53;1.10;;;0.63;;
29662;SDS011;16578;53.266;7.920;2022-12-07T05:54:19;3.20;;;0.70;;
29662;SDS011;16578;53.266;7.920;2022-12-07T05:56:45;5.72;;;0.88;;
29662;SDS011;16578;53.266;7.920;2022-12-07T05:59:10;4.05;;;1.00;;
29662;SDS011;16578;53.266;7.920;2022-12-07T06:01:49;2.13;;;0.87;;
29662;SDS011;16578;53.266;7.920;2022-12-07T06:04:16;1.20;;;0.60;;
29662;SDS011;16578;53.266;7.920;2022-12-07T06:06:42;1.55;;;0.57;;
29662;SDS011;16578;53.266;7.920;2022-12-07T06:09:08;2.65;;;0.70;;
29662;SDS011;16578;53.266;7.920;2022-12-07T06:11:34;1.05;;;0.55;;
29662;SDS011;16578;53.266;7.920;2022-12-07T06:14:18;1.33;;;0.50;;
29662;SDS011;16578;53.266;7.920;2022-12-07T06:16:44;1.55;;;0.55;;
29662;SDS011;16578;53.266;7.920;2022-12-07T06:19:09;1.58;;;0.63;;
29662;SDS011;16578;53.266;7.920;2022-12-07T06:21:35;1.33;;;0.70;;
29662;SDS011;16578;53.266;7.920;2022-12-07T06:24:01;3.00;;;0.93;;
29662;SDS011;16578;53.266;7.920;2022-12-07T06:26:27;2.45;;;0.70;;
29662;SDS011;16578;53.266;7.920;2022-12-07T06:28:52;2.55;;;0.80;;
29662;SDS011;16578;53.266;7.920;2022-12-07T06:31:18;2.67;;;0.60;;
29662;SDS011;16578;53.266;7.920;2022-12-07T06:33:43;1.70;;;0.60;;
29662;SDS011;16578;53.266;7.920;2022-12-07T06:36:09;2.75;;;1.13;;
29662;SDS011;16578;53.266;7.920;2022-12-07T06:38:35;0.70;;;0.55;;
29662;SDS011;16578;53.266;7.920;2022-12-07T06:41:01;2.28;;;0.70;;
29662;SDS011;16578;53.266;7.920;2022-12-07T06:43:26;2.13;;;0.90;;
29662;SDS011;16578;53.266;7.920;2022-12-07T06:45:52;1.85;;;0.65;;
29662;SDS011;16578;53.266;7.920;2022-12-07T06:48:17;1.83;;;0.80;;
29662;SDS011;16578;53.266;7.920;2022-12-07T06:50:46;1.98;;;0.63;;
29662;SDS011;16578;53.266;7.920;2022-12-07T06:53:12;1.52;;;0.90;;
29662;SDS011;16578;53.266;7.920;2022-12-07T06:55:38;2.78;;;1.10;;
29662;SDS011;16578;53.266;7.920;2022-12-07T06:58:04;2.58;;;0.73;;
29662;SDS011;16578;53.266;7.920;2022-12-07T07:00:29;1.63;;;1.00;;
29662;SDS011;16578;53.266;7.920;2022-12-07T07:02:55;2.08;;;1.00;;
29662;SDS011;16578;53.266;7.920;2022-12-07T07:05:21;2.30;;;0.70;;
29662;SDS011;16578;53.266;7.920;2022-12-07T07:07:47;2.47;;;1.00;;
29662;SDS011;16578;53.266;7.920;2022-12-07T07:10:16;1.67;;;0.80;;
29662;SDS011;16578;53.266;7.920;2022-12-07T07:12:41;2.72;;;1.20;;
29662;SDS011;16578;53.266;7.920;2022-12-07T07:15:07;1.17;;;0.95;;
29662;SDS011;16578;53.266;7.920;2022-12-07T07:17:33;2.28;;;0.80;;
29662;SDS011;16578;53.266;7.920;2022-12-07T07:19:58;1.88;;;1.23;;
29662;SDS011;16578;53.266;7.920;2022-12-07T07:22:24;3.33;;;1.80;;
29662;SDS011;16578;53.266;7.920;2022-12-07T07:24:49;5.95;;;2.72;;
29662;SDS011;16578;53.266;7.920;2022-12-07T07:27:15;5.93;;;2.60;;
29662;SDS011;16578;53.266;7.920;2022-12-07T07:29:40;10.73;;;3.17;;
29662;SDS011;16578;53.266;7.920;2022-12-07T07:32:06;7.68;;;3.95;;
29662;SDS011;16578;53.266;7.920;2022-12-07T07:34:32;5.47;;;3.47;;
29662;SDS011;16578;53.266;7.920;2022-12-07T07:36:58;5.00;;;2.42;;
29662;SDS011;16578;53.266;7.920;2022-12-07T07:39:24;5.40;;;1.85;;
29662;SDS011;16578;53.266;7.920;2022-12-07T07:41:49;3.13;;;1.67;;
29662;SDS011;16578;53.266;7.920;2022-12-07T07:44:15;3.60;;;1.80;;
29662;SDS011;16578;53.266;7.920;2022-12-07T07:46:40;5.68;;;1.55;;
29662;SDS011;16578;53.266;7.920;2022-12-07T07:49:06;2.42;;;1.40;;
29662;SDS011;16578;53.266;7.920;2022-12-07T07:51:31;6.45;;;1.58;;
29662;SDS011;16578;53.266;7.920;2022-12-07T07:53:57;4.05;;;1.30;;
29662;SDS011;16578;53.266;7.920;2022-12-07T07:56:22;3.50;;;1.63;;
29662;SDS011;16578;53.266;7.920;2022-12-07T07:58:51;3.85;;;1.65;;
29662;SDS011;16578;53.266;7.920;2022-12-07T08:01:17;4.65;;;1.25;;
29662;SDS011;16578;53.266;7.920;2022-12-07T08:03:44;2.90;;;1.40;;
29662;SDS011;16578;53.266;7.920;2022-12-07T08:06:11;4.72;;;1.63;;
29662;SDS011;16578;53.266;7.920;2022-12-07T08:08:36;5.20;;;1.90;;
29662;SDS011;16578;53.266;7.920;2022-12-07T08:11:04;4.55;;;1.63;;
29662;SDS011;16578;53.266;7.920;2022-12-07T08:13:30;2.28;;;1.30;;
29662;SDS011;16578;53.266;7.920;2022-12-07T08:15:56;4.38;;;1.77;;
29662;SDS011;16578;53.266;7.920;2022-12-07T08:18:21;6.10;;;1.73;;
29662;SDS011;16578;53.266;7.920;2022-12-07T08:20:47;4.43;;;1.70;;
29662;SDS011;16578;53.266;7.920;2022-12-07T08:23:13;6.95;;;2.10;;
29662;SDS011;16578;53.266;7.920;2022-12-07T08:25:38;4.72;;;1.80;;
29662;SDS011;16578;53.266;7.920;2022-12-07T08:28:04;4.18;;;1.95;;
29662;SDS011;16578;53.266;7.920;2022-12-07T08:30:30;5.53;;;1.70;;
29662;SDS011;16578;53.266;7.920;2022-12-07T08:32:56;3.80;;;1.73;;
29662;SDS011;16578;53.266;7.920;2022-12-07T08:35:22;4.28;;;1.70;;
29662;SDS011;16578;53.266;7.920;2022-12-07T08:37:48;3.92;;;1.40;;
29662;SDS011;16578;53.266;7.920;2022-12-07T08:40:14;3.80;;;1.55;;
29662;SDS011;16578;53.266;7.920;2022-12-07T08:42:41;14.23;;;6.13;;
29662;SDS011;16578;53.266;7.920;2022-12-07T08:45:10;6.72;;;3.35;;
29662;SDS011;16578;53.266;7.920;2022-12-07T08:47:38;6.00;;;2.70;;
29662;SDS011;16578;53.266;7.920;2022-12-07T08:50:08;2.38;;;1.77;;
29662;SDS011;16578;53.266;7.920;2022-12-07T08:52:36;2.75;;;1.42;;
29662;SDS011;16578;53.266;7.920;2022-12-07T08:55:02;9.85;;;2.17;;
29662;SDS011;16578;53.266;7.920;2022-12-07T08:57:29;2.45;;;1.00;;
29662;SDS011;16578;53.266;7.920;2022-12-07T08:59:57;6.13;;;1.33;;
29662;SDS011;16578;53.266;7.920;2022-12-07T09:02:23;6.18;;;1.75;;
29662;SDS011;16578;53.266;7.920;2022-12-07T09:04:49;3.78;;;1.02;;
29662;SDS011;16578;53.266;7.920;2022-12-07T09:07:14;4.57;;;0.90;;
29662;SDS011;16578;53.266;7.920;2022-12-07T09:09:40;4.47;;;1.02;;
29662;SDS011;16578;53.266;7.920;2022-12-07T09:12:06;3.03;;;1.08;;
29662;SDS011;16578;53.266;7.920;2022-12-07T09:14:32;3.65;;;1.15;;
29662;SDS011;16578;53.266;7.920;2022-12-07T09:17:10;2.80;;;1.23;;
29662;SDS011;16578;53.266;7.920;2022-12-07T09:19:38;3.20;;;1.20;;
29662;SDS011;16578;53.266;7.920;2022-12-07T09:22:04;4.40;;;1.00;;
29662;SDS011;16578;53.266;7.920;2022-12-07T09:24:30;4.43;;;1.67;;
29662;SDS011;16578;53.266;7.920;2022-12-07T09:26:57;6.70;;;2.05;;
29662;SDS011;16578;53.266;7.920;2022-12-07T09:29:22;4.50;;;1.77;;
29662;SDS011;16578;53.266;7.920;2022-12-07T09:31:48;2.17;;;1.35;;
29662;SDS011;16578;53.266;7.920;2022-12-07T09:34:14;4.10;;;1.13;;
29662;SDS011;16578;53.266;7.920;2022-12-07T09:36:39;8.88;;;1.70;;
29662;SDS011;16578;53.266;7.920;2022-12-07T09:39:05;3.83;;;1.33;;
29662;SDS011;16578;53.266;7.920;2022-12-07T09:41:31;2.97;;;0.90;;
29662;SDS011;16578;53.266;7.920;2022-12-07T09:44:40;3.95;;;0.98;;
29662;SDS011;16578;53.266;7.920;2022-12-07T09:46:49;5.13;;;1.30;;
29662;SDS011;16578;53.266;7.920;2022-12-07T09:49:18;6.13;;;1.38;;
29662;SDS011;16578;53.266;7.920;2022-12-07T09:51:46;3.10;;;1.50;;
29662;SDS011;16578;53.266;7.920;2022-12-07T09:54:13;2.25;;;1.10;;
29662;SDS011;16578;53.266;7.920;2022-12-07T09:56:40;2.13;;;0.90;;
29662;SDS011;16578;53.266;7.920;2022-12-07T09:59:09;1.33;;;0.90;;
29662;SDS011;16578;53.266;7.920;2022-12-07T10:01:41;4.88;;;1.20;;
29662;SDS011;16578;53.266;7.920;2022-12-07T10:04:12;3.40;;;1.17;;
29662;SDS011;16578;53.266;7.920;2022-12-07T10:06:41;4.15;;;1.05;;
29662;SDS011;16578;53.266;7.920;2022-12-07T10:09:11;2.60;;;1.00;;
29662;SDS011;16578;53.266;7.920;2022-12-07T10:11:57;2.92;;;1.17;;
29662;SDS011;16578;53.266;7.920;2022-12-07T10:14:23;4.25;;;1.13;;
29662;SDS011;16578;53.266;7.920;2022-12-07T10:16:48;3.30;;;1.27;;
29662;SDS011;16578;53.266;7.920;2022-12-07T10:24:27;4.63;;;1.33;;
29662;SDS011;16578;53.266;7.920;2022-12-07T10:26:53;2.95;;;1.13;;
29662;SDS011;16578;53.266;7.920;2022-12-07T10:29:23;2.13;;;1.00;;
29662;SDS011;16578;53.266;7.920;2022-12-07T10:36:50;4.57;;;1.35;;
29662;SDS011;16578;53.266;7.920;2022-12-07T10:39:18;3.08;;;1.13;;
29662;SDS011;16578;53.266;7.920;2022-12-07T10:41:55;3.22;;;1.30;;
29662;SDS011;16578;53.266;7.920;2022-12-07T10:44:23;4.97;;;1.33;;
29662;SDS011;16578;53.266;7.920;2022-12-07T10:47:14;4.55;;;1.30;;
29662;SDS011;16578;53.266;7.920;2022-12-07T10:50:01;7.22;;;1.80;;
29662;SDS011;16578;53.266;7.920;2022-12-07T10:53:10;6.53;;;1.20;;
29662;SDS011;16578;53.266;7.920;2022-12-07T11:01:13;3.78;;;1.60;;
29662;SDS011;16578;53.266;7.920;2022-12-07T11:06:50;5.13;;;1.98;;
29662;SDS011;16578;53.266;7.920;2022-12-07T11:17:36;5.70;;;2.67;;
29662;SDS011;16578;53.266;7.920;2022-12-07T11:20:24;5.60;;;1.98;;
29662;SDS011;16578;53.266;7.920;2022-12-07T11:23:12;6.05;;;1.73;;
29662;SDS011;16578;53.266;7.920;2022-12-07T11:31:28;5.75;;;1.50;;
29662;SDS011;16578;53.266;7.920;2022-12-07T11:34:32;4.07;;;1.48;;
29662;SDS011;16578;53.266;7.920;2022-12-07T11:37:07;5.30;;;1.70;;
29662;SDS011;16578;53.266;7.920;2022-12-07T11:39:48;3.45;;;1.70;;
29662;SDS011;16578;53.266;7.920;2022-12-07T11:42:21;5.47;;;2.17;;
29662;SDS011;16578;53.266;7.920;2022-12-07T11:50:10;4.40;;;1.60;;
29662;SDS011;16578;53.266;7.920;2022-12-07T11:52:49;4.60;;;1.52;;
29662;SDS011;16578;53.266;7.920;2022-12-07T11:55:49;4.80;;;1.60;;
29662;SDS011;16578;53.266;7.920;2022-12-07T12:01:02;3.30;;;1.07;;
29662;SDS011;16578;53.266;7.920;2022-12-07T12:03:30;2.28;;;1.00;;
29662;SDS011;16578;53.266;7.920;2022-12-07T12:06:00;2.53;;;1.00;;
29662;SDS011;16578;53.266;7.920;2022-12-07T12:08:30;2.63;;;0.85;;
29662;SDS011;16578;53.266;7.920;2022-12-07T12:11:11;6.15;;;1.30;;
29662;SDS011;16578;53.266;7.920;2022-12-07T12:19:37;3.45;;;1.30;;
29662;SDS011;16578;53.266;7.920;2022-12-07T12:22:22;8.18;;;5.97;;
29662;SDS011;16578;53.266;7.920;2022-12-07T12:24:57;12.48;;;6.32;;
29662;SDS011;16578;53.266;7.920;2022-12-07T12:27:25;8.88;;;3.72;;
29662;SDS011;16578;53.266;7.920;2022-12-07T12:29:56;5.63;;;1.90;;
29662;SDS011;16578;53.266;7.920;2022-12-07T12:32:41;5.07;;;2.08;;
29662;SDS011;16578;53.266;7.920;2022-12-07T12:35:22;4.22;;;1.88;;
29662;SDS011;16578;53.266;7.920;2022-12-07T12:40:52;3.80;;;1.60;;
29662;SDS011;16578;53.266;7.920;2022-12-07T12:48:54;2.10;;;1.00;;
29662;SDS011;16578;53.266;7.920;2022-12-07T12:51:40;2.40;;;0.80;;
29662;SDS011;16578;53.266;7.920;2022-12-07T12:54:14;4.80;;;1.15;;
29662;SDS011;16578;53.266;7.920;2022-12-07T13:15:49;5.13;;;1.20;;
29662;SDS011;16578;53.266;7.920;2022-12-07T13:34:33;4.97;;;1.23;;
29662;SDS011;16578;53.266;7.920;2022-12-07T13:37:02;2.63;;;1.02;;
29662;SDS011;16578;53.266;7.920;2022-12-07T13:39:35;2.05;;;0.88;;
29662;SDS011;16578;53.266;7.920;2022-12-07T13:45:00;2.92;;;1.50;;
29662;SDS011;16578;53.266;7.920;2022-12-07T13:47:49;2.63;;;1.00;;
29662;SDS011;16578;53.266;7.920;2022-12-07T13:50:24;3.78;;;1.27;;
29662;SDS011;16578;53.266;7.920;2022-12-07T13:53:00;4.10;;;1.58;;
29662;SDS011;16578;53.266;7.920;2022-12-07T13:55:27;6.03;;;1.02;;
29662;SDS011;16578;53.266;7.920;2022-12-07T13:57:54;4.13;;;1.65;;
29662;SDS011;16578;53.266;7.920;2022-12-07T14:00:21;4.07;;;1.20;;
29662;SDS011;16578;53.266;7.920;2022-12-07T14:02:59;3.80;;;1.10;;
29662;SDS011;16578;53.266;7.920;2022-12-07T14:05:29;2.75;;;1.05;;
29662;SDS011;16578;53.266;7.920;2022-12-07T14:07:57;5.15;;;2.00;;
29662;SDS011;16578;53.266;7.920;2022-12-07T14:12:51;2.45;;;0.93;;
29662;SDS011;16578;53.266;7.920;2022-12-07T14:15:24;6.95;;;1.42;;
29662;SDS011;16578;53.266;7.920;2022-12-07T14:17:59;3.53;;;1.35;;
29662;SDS011;16578;53.266;7.920;2022-12-07T14:20:38;3.03;;;0.98;;
29662;SDS011;16578;53.266;7.920;2022-12-07T14:23:19;6.28;;;1.55;;
29662;SDS011;16578;53.266;7.920;2022-12-07T14:25:50;2.60;;;1.00;;
29662;SDS011;16578;53.266;7.920;2022-12-07T14:28:34;3.85;;;1.52;;
29662;SDS011;16578;53.266;7.920;2022-12-07T14:31:01;4.90;;;1.08;;
29662;SDS011;16578;53.266;7.920;2022-12-07T14:33:27;6.40;;;1.33;;
29662;SDS011;16578;53.266;7.920;2022-12-07T14:35:53;3.40;;;1.15;;
29662;SDS011;16578;53.266;7.920;2022-12-07T14:38:24;2.88;;;1.15;;
29662;SDS011;16578;53.266;7.920;2022-12-07T14:40:51;5.13;;;1.40;;
29662;SDS011;16578;53.266;7.920;2022-12-07T14:43:17;6.65;;;1.60;;
29662;SDS011;16578;53.266;7.920;2022-12-07T14:45:44;3.20;;;1.10;;
29662;SDS011;16578;53.266;7.920;2022-12-07T14:48:10;1.98;;;1.23;;
29662;SDS011;16578;53.266;7.920;2022-12-07T14:50:39;3.05;;;1.10;;
29662;SDS011;16578;53.266;7.920;2022-12-07T14:53:13;5.00;;;1.25;;
29662;SDS011;16578;53.266;7.920;2022-12-07T14:55:41;4.03;;;1.30;;
29662;SDS011;16578;53.266;7.920;2022-12-07T14:58:12;2.88;;;1.33;;
29662;SDS011;16578;53.266;7.920;2022-12-07T15:00:40;1.95;;;1.55;;
29662;SDS011;16578;53.266;7.920;2022-12-07T15:03:05;6.00;;;1.70;;
29662;SDS011;16578;53.266;7.920;2022-12-07T15:05:31;2.47;;;1.20;;
29662;SDS011;16578;53.266;7.920;2022-12-07T15:07:57;2.90;;;2.00;;
29662;SDS011;16578;53.266;7.920;2022-12-07T15:10:24;3.78;;;1.63;;
29662;SDS011;16578;53.266;7.920;2022-12-07T15:12:56;5.22;;;1.70;;
29662;SDS011;16578;53.266;7.920;2022-12-07T15:15:46;3.88;;;1.35;;
29662;SDS011;16578;53.266;7.920;2022-12-07T15:18:12;3.25;;;1.40;;
29662;SDS011;16578;53.266;7.920;2022-12-07T15:20:38;4.50;;;1.52;;
29662;SDS011;16578;53.266;7.920;2022-12-07T15:23:03;4.68;;;1.70;;
29662;SDS011;16578;53.266;7.920;2022-12-07T15:25:29;5.47;;;1.65;;
29662;SDS011;16578;53.266;7.920;2022-12-07T15:27:54;3.80;;;2.08;;
29662;SDS011;16578;53.266;7.920;2022-12-07T15:30:20;5.15;;;3.00;;
29662;SDS011;16578;53.266;7.920;2022-12-07T15:32:49;8.05;;;3.22;;
29662;SDS011;16578;53.266;7.920;2022-12-07T15:35:19;5.88;;;3.22;;
29662;SDS011;16578;53.266;7.920;2022-12-07T15:37:45;6.13;;;3.00;;
29662;SDS011;16578;53.266;7.920;2022-12-07T15:40:11;5.05;;;2.70;;
29662;SDS011;16578;53.266;7.920;2022-12-07T15:42:38;5.15;;;3.05;;
29662;SDS011;16578;53.266;7.920;2022-12-07T15:45:05;5.35;;;2.08;;
29662;SDS011;16578;53.266;7.920;2022-12-07T15:47:42;3.72;;;2.03;;
29662;SDS011;16578;53.266;7.920;2022-12-07T15:50:11;3.47;;;1.80;;
29662;SDS011;16578;53.266;7.920;2022-12-07T15:55:04;5.32;;;2.35;;
29662;SDS011;16578;53.266;7.920;2022-12-07T15:57:30;5.55;;;2.35;;
29662;SDS011;16578;53.266;7.920;2022-12-07T15:59:57;6.35;;;2.35;;
29662;SDS011;16578;53.266;7.920;2022-12-07T16:02:22;5.80;;;2.40;;
29662;SDS011;16578;53.266;7.920;2022-12-07T16:04:49;6.18;;;3.03;;
29662;SDS011;16578;53.266;7.920;2022-12-07T16:07:15;5.65;;;2.33;;
29662;SDS011;16578;53.266;7.920;2022-12-07T16:09:42;3.67;;;1.67;;
29662;SDS011;16578;53.266;7.920;2022-12-07T16:12:08;5.00;;;1.65;;
29662;SDS011;16578;53.266;7.920;2022-12-07T16:14:34;4.18;;;1.58;;
29662;SDS011;16578;53.266;7.920;2022-12-07T16:16:59;5.20;;;1.60;;
29662;SDS011;16578;53.266;7.920;2022-12-07T16:19:25;2.97;;;1.70;;
29662;SDS011;16578;53.266;7.920;2022-12-07T16:21:51;2.70;;;1.88;;
29662;SDS011;16578;53.266;7.920;2022-12-07T16:24:16;4.70;;;2.22;;
29662;SDS011;16578;53.266;7.920;2022-12-07T16:26:43;6.88;;;1.92;;
29662;SDS011;16578;53.266;7.920;2022-12-07T16:29:10;6.75;;;1.65;;
29662;SDS011;16578;53.266;7.920;2022-12-07T16:31:37;6.28;;;2.10;;
29662;SDS011;16578;53.266;7.920;2022-12-07T16:34:02;5.40;;;2.05;;
29662;SDS011;16578;53.266;7.920;2022-12-07T16:36:28;3.67;;;1.70;;
29662;SDS011;16578;53.266;7.920;2022-12-07T16:38:53;2.38;;;1.40;;
29662;SDS011;16578;53.266;7.920;2022-12-07T16:41:19;2.95;;;1.40;;
29662;SDS011;16578;53.266;7.920;2022-12-07T16:43:45;2.45;;;1.30;;
29662;SDS011;16578;53.266;7.920;2022-12-07T16:46:10;3.13;;;1.48;;
29662;SDS011;16578;53.266;7.920;2022-12-07T16:48:37;5.25;;;2.28;;
29662;SDS011;16578;53.266;7.920;2022-12-07T16:51:07;5.60;;;1.95;;
29662;SDS011;16578;53.266;7.920;2022-12-07T16:53:34;5.78;;;1.85;;
29662;SDS011;16578;53.266;7.920;2022-12-07T16:56:01;4.40;;;2.17;;
29662;SDS011;16578;53.266;7.920;2022-12-07T16:58:27;9.20;;;2.72;;
29662;SDS011;16578;53.266;7.920;2022-12-07T17:00:53;6.28;;;3.22;;
29662;SDS011;16578;53.266;7.920;2022-12-07T17:03:19;5.15;;;3.20;;
29662;SDS011;16578;53.266;7.920;2022-12-07T17:05:45;4.47;;;2.95;;
29662;SDS011;16578;53.266;7.920;2022-12-07T17:08:12;4.97;;;2.60;;
29662;SDS011;16578;53.266;7.920;2022-12-07T17:10:39;5.25;;;2.20;;
29662;SDS011;16578;53.266;7.920;2022-12-07T17:13:07;3.72;;;1.92;;
29662;SDS011;16578;53.266;7.920;2022-12-07T17:16:01;2.60;;;1.40;;
29662;SDS011;16578;53.266;7.920;2022-12-07T17:18:30;4.22;;;1.67;;
29662;SDS011;16578;53.266;7.920;2022-12-07T17:21:01;1.70;;;1.40;;